Mid Delta Regional Airport
KGLH : now visible

Airfield :











YOU CAN JOIN US ON...

 
LOGIN :

Register | Disclaimer

   EN    FR    IT 

 









Legend :    VFR   Marginal VFR   IFR   Intensive IFR   Very Intensive IFR
Visi :
Ceiling :
>= 8 km
>= 3000ft
5 to 8 km
1000 to 3000 ft
1500m to 5 km
500 to 1000 ft
800 to 1500m
200 to 500 ft
< 800m
< 200 ft
Symbols :   Thunderstorms  Fog  Heavy snow  Heavy precipitations  Wind > 20 kt






- Airport Elevation : 131 ft
- IATA code : GLH


KGLH - Mid Delta Regional

CURRENT METAR :
  • 171353Z 00000KT 4SM BR CLR 04/02 A3008 RMK AO2 SLP196 T00390022

EXPIRED METARs :
  • 171330Z 00000KT 2 1/2SM BR CLR 01/M01 A3009 RMK AO2 T00061006
  • 171322Z 00000KT 1 1/4SM BR CLR 00/M01 A3009 RMK AO2 T00001011
  • 171309Z 34003KT 1/2SM FZFG VV002 M02/M03 A3010 RMK AO2 T10171028
  • 171306Z 34003KT 1 1/4SM BR CLR M02/M03 A3010 RMK AO2 T10171028
  • 171256Z 00000KT 3SM BR CLR M01/M02 A3009 RMK AO2 T10111022
  • 171233Z AUTO 00000KT 4SM BR CLR M01/M02 A3009 RMK AO2 I1000 T10111022
  • 171224Z AUTO 00000KT 2SM BR CLR M01/M02 A3009 RMK AO2 I1000 T10061017
  • 171153Z AUTO 01003KT 3/4SM BR VV002 00/M01 A3009 RMK AO2 SLP199 I6001 T00001011 10022 21017 55001

TAF KGLH
Valid from the 17 at 12:00 until the 18 at 12:00 UTC


171121Z 1712/1812 00000KT 2SM BR SKC
FM171400 27005KT P6SM SKC



MET'MAP, your aeronautical weather chart ! - Copyright ORBIFLY December 2007 - Disclaimer

ORBIFLY MET'MAP TEAM :

Programming & Development : Alexandra Zaïnal
Concept & Development : Baudouin d'Aumeries
Co-Development & Prog : Marc-Olivier Méhu
Technical & hardware support : Manuel Goepfert

Contact : metmap@orbifly.com




SOURCES & CREDITS :

   NOAA       Earth
Advisory